sensor_id;sensor_type;location;lat;lon;timestamp;P1;durP1;ratioP1;P2;durP2;ratioP2
32613;SDS011;19031;51.400;6.770;2022-10-29T00:00:24;16.27;;;5.00;;
32613;SDS011;19031;51.400;6.770;2022-10-29T00:02:49;18.77;;;4.10;;
32613;SDS011;19031;51.400;6.770;2022-10-29T00:05:15;9.43;;;3.55;;
32613;SDS011;19031;51.400;6.770;2022-10-29T00:07:40;7.70;;;3.28;;
32613;SDS011;19031;51.400;6.770;2022-10-29T00:10:06;11.27;;;3.67;;
32613;SDS011;19031;51.400;6.770;2022-10-29T00:12:32;10.52;;;4.43;;
32613;SDS011;19031;51.400;6.770;2022-10-29T00:14:58;8.82;;;4.38;;
32613;SDS011;19031;51.400;6.770;2022-10-29T00:17:23;8.23;;;3.97;;
32613;SDS011;19031;51.400;6.770;2022-10-29T00:19:49;11.65;;;4.03;;
32613;SDS011;19031;51.400;6.770;2022-10-29T00:22:15;13.07;;;3.75;;
32613;SDS011;19031;51.400;6.770;2022-10-29T00:24:40;6.45;;;3.13;;
32613;SDS011;19031;51.400;6.770;2022-10-29T00:27:06;14.30;;;4.40;;
32613;SDS011;19031;51.400;6.770;2022-10-29T00:29:31;16.52;;;3.78;;
32613;SDS011;19031;51.400;6.770;2022-10-29T00:31:57;19.35;;;4.28;;
32613;SDS011;19031;51.400;6.770;2022-10-29T00:34:23;15.07;;;4.57;;
32613;SDS011;19031;51.400;6.770;2022-10-29T00:36:48;10.27;;;2.95;;
32613;SDS011;19031;51.400;6.770;2022-10-29T00:39:14;14.10;;;5.15;;
32613;SDS011;19031;51.400;6.770;2022-10-29T00:41:40;15.05;;;4.30;;
32613;SDS011;19031;51.400;6.770;2022-10-29T00:49:52;7.50;;;3.20;;
32613;SDS011;19031;51.400;6.770;2022-10-29T00:52:22;10.45;;;3.83;;
32613;SDS011;19031;51.400;6.770;2022-10-29T00:54:50;7.93;;;3.08;;
32613;SDS011;19031;51.400;6.770;2022-10-29T00:57:19;7.97;;;3.47;;
32613;SDS011;19031;51.400;6.770;2022-10-29T00:59:50;12.23;;;4.10;;
32613;SDS011;19031;51.400;6.770;2022-10-29T01:02:16;9.13;;;3.10;;
32613;SDS011;19031;51.400;6.770;2022-10-29T01:04:42;3.58;;;2.38;;
32613;SDS011;19031;51.400;6.770;2022-10-29T01:07:09;11.70;;;4.57;;
32613;SDS011;19031;51.400;6.770;2022-10-29T01:09:35;6.90;;;3.50;;
32613;SDS011;19031;51.400;6.770;2022-10-29T01:14:36;6.03;;;3.47;;
32613;SDS011;19031;51.400;6.770;2022-10-29T01:17:24;8.98;;;3.20;;
32613;SDS011;19031;51.400;6.770;2022-10-29T01:25:10;19.25;;;3.72;;
32613;SDS011;19031;51.400;6.770;2022-10-29T01:27:58;10.00;;;3.90;;
32613;SDS011;19031;51.400;6.770;2022-10-29T01:33:15;9.98;;;3.40;;
32613;SDS011;19031;51.400;6.770;2022-10-29T01:36:06;19.13;;;3.85;;
32613;SDS011;19031;51.400;6.770;2022-10-29T01:38:40;9.98;;;3.95;;
32613;SDS011;19031;51.400;6.770;2022-10-29T01:41:24;9.82;;;4.38;;
32613;SDS011;19031;51.400;6.770;2022-10-29T01:44:06;6.75;;;3.85;;
32613;SDS011;19031;51.400;6.770;2022-10-29T01:47:14;8.90;;;2.72;;
32613;SDS011;19031;51.400;6.770;2022-10-29T01:49:46;17.48;;;4.28;;
32613;SDS011;19031;51.400;6.770;2022-10-29T01:52:17;5.35;;;3.47;;
32613;SDS011;19031;51.400;6.770;2022-10-29T01:54:46;12.80;;;3.63;;
32613;SDS011;19031;51.400;6.770;2022-10-29T02:08:31;14.95;;;4.68;;
32613;SDS011;19031;51.400;6.770;2022-10-29T02:11:02;11.05;;;4.72;;
32613;SDS011;19031;51.400;6.770;2022-10-29T02:14:01;11.98;;;3.30;;
32613;SDS011;19031;51.400;6.770;2022-10-29T02:16:32;7.63;;;3.30;;
32613;SDS011;19031;51.400;6.770;2022-10-29T02:18:58;7.38;;;3.22;;
32613;SDS011;19031;51.400;6.770;2022-10-29T02:21:24;10.65;;;3.45;;
32613;SDS011;19031;51.400;6.770;2022-10-29T02:23:50;5.90;;;3.28;;
32613;SDS011;19031;51.400;6.770;2022-10-29T02:26:16;10.23;;;4.22;;
32613;SDS011;19031;51.400;6.770;2022-10-29T02:28:42;9.35;;;3.80;;
32613;SDS011;19031;51.400;6.770;2022-10-29T02:31:07;9.70;;;3.72;;
32613;SDS011;19031;51.400;6.770;2022-10-29T02:33:33;18.45;;;3.70;;
32613;SDS011;19031;51.400;6.770;2022-10-29T02:35:59;7.70;;;3.10;;
32613;SDS011;19031;51.400;6.770;2022-10-29T02:38:24;17.30;;;4.25;;
32613;SDS011;19031;51.400;6.770;2022-10-29T02:40:50;14.63;;;4.43;;
32613;SDS011;19031;51.400;6.770;2022-10-29T02:43:16;18.65;;;5.35;;
32613;SDS011;19031;51.400;6.770;2022-10-29T02:45:41;12.50;;;3.22;;
32613;SDS011;19031;51.400;6.770;2022-10-29T02:48:07;9.98;;;5.28;;
32613;SDS011;19031;51.400;6.770;2022-10-29T02:50:32;12.32;;;4.75;;
32613;SDS011;19031;51.400;6.770;2022-10-29T02:52:58;14.05;;;4.53;;
32613;SDS011;19031;51.400;6.770;2022-10-29T02:55:24;5.78;;;3.40;;
32613;SDS011;19031;51.400;6.770;2022-10-29T02:57:49;13.20;;;4.80;;
32613;SDS011;19031;51.400;6.770;2022-10-29T03:00:15;16.33;;;4.78;;
32613;SDS011;19031;51.400;6.770;2022-10-29T03:02:40;13.90;;;4.20;;
32613;SDS011;19031;51.400;6.770;2022-10-29T03:05:06;14.85;;;3.75;;
32613;SDS011;19031;51.400;6.770;2022-10-29T03:07:36;6.53;;;3.45;;
32613;SDS011;19031;51.400;6.770;2022-10-29T03:10:03;6.22;;;3.70;;
32613;SDS011;19031;51.400;6.770;2022-10-29T03:12:29;5.25;;;2.78;;
32613;SDS011;19031;51.400;6.770;2022-10-29T03:14:55;5.30;;;3.15;;
32613;SDS011;19031;51.400;6.770;2022-10-29T03:17:21;9.40;;;3.90;;
32613;SDS011;19031;51.400;6.770;2022-10-29T03:19:46;11.68;;;4.15;;
32613;SDS011;19031;51.400;6.770;2022-10-29T03:22:12;14.55;;;4.13;;
32613;SDS011;19031;51.400;6.770;2022-10-29T03:24:37;10.73;;;4.20;;
32613;SDS011;19031;51.400;6.770;2022-10-29T03:27:03;17.15;;;5.22;;
32613;SDS011;19031;51.400;6.770;2022-10-29T03:29:28;10.80;;;3.03;;
32613;SDS011;19031;51.400;6.770;2022-10-29T03:31:54;9.93;;;3.80;;
32613;SDS011;19031;51.400;6.770;2022-10-29T03:34:20;13.35;;;4.35;;
32613;SDS011;19031;51.400;6.770;2022-10-29T03:36:45;8.18;;;2.90;;
32613;SDS011;19031;51.400;6.770;2022-10-29T03:39:11;22.27;;;3.55;;
32613;SDS011;19031;51.400;6.770;2022-10-29T03:41:37;10.80;;;3.92;;
32613;SDS011;19031;51.400;6.770;2022-10-29T03:44:03;14.20;;;4.13;;
32613;SDS011;19031;51.400;6.770;2022-10-29T03:46:28;6.93;;;3.47;;
32613;SDS011;19031;51.400;6.770;2022-10-29T03:48:54;12.80;;;3.92;;
32613;SDS011;19031;51.400;6.770;2022-10-29T03:51:19;11.55;;;3.13;;
32613;SDS011;19031;51.400;6.770;2022-10-29T03:53:45;14.90;;;4.45;;
32613;SDS011;19031;51.400;6.770;2022-10-29T03:56:11;11.75;;;4.43;;
32613;SDS011;19031;51.400;6.770;2022-10-29T03:58:36;15.45;;;4.35;;
32613;SDS011;19031;51.400;6.770;2022-10-29T04:01:03;17.23;;;4.72;;
32613;SDS011;19031;51.400;6.770;2022-10-29T04:03:30;9.73;;;3.85;;
32613;SDS011;19031;51.400;6.770;2022-10-29T04:05:58;12.10;;;4.47;;
32613;SDS011;19031;51.400;6.770;2022-10-29T04:08:24;4.32;;;2.58;;
32613;SDS011;19031;51.400;6.770;2022-10-29T04:10:50;14.00;;;4.43;;
32613;SDS011;19031;51.400;6.770;2022-10-29T04:13:17;10.75;;;3.85;;
32613;SDS011;19031;51.400;6.770;2022-10-29T04:15:43;8.65;;;4.30;;
32613;SDS011;19031;51.400;6.770;2022-10-29T04:18:09;11.90;;;4.07;;
32613;SDS011;19031;51.400;6.770;2022-10-29T04:20:36;15.95;;;4.47;;
32613;SDS011;19031;51.400;6.770;2022-10-29T04:23:02;17.20;;;4.85;;
32613;SDS011;19031;51.400;6.770;2022-10-29T04:25:28;12.93;;;4.47;;
32613;SDS011;19031;51.400;6.770;2022-10-29T04:27:54;16.40;;;5.70;;
32613;SDS011;19031;51.400;6.770;2022-10-29T04:30:20;11.77;;;4.13;;
32613;SDS011;19031;51.400;6.770;2022-10-29T04:32:46;14.70;;;4.20;;
32613;SDS011;19031;51.400;6.770;2022-10-29T04:35:12;16.33;;;4.53;;
32613;SDS011;19031;51.400;6.770;2022-10-29T04:37:37;19.63;;;5.40;;
32613;SDS011;19031;51.400;6.770;2022-10-29T04:40:03;11.73;;;4.28;;
32613;SDS011;19031;51.400;6.770;2022-10-29T04:42:34;9.68;;;4.20;;
32613;SDS011;19031;51.400;6.770;2022-10-29T04:45:03;14.57;;;4.13;;
32613;SDS011;19031;51.400;6.770;2022-10-29T04:47:30;19.10;;;5.65;;
32613;SDS011;19031;51.400;6.770;2022-10-29T04:49:56;11.05;;;4.22;;
32613;SDS011;19031;51.400;6.770;2022-10-29T04:52:21;15.18;;;4.65;;
32613;SDS011;19031;51.400;6.770;2022-10-29T04:54:47;15.65;;;4.75;;
32613;SDS011;19031;51.400;6.770;2022-10-29T04:57:12;16.40;;;4.70;;
32613;SDS011;19031;51.400;6.770;2022-10-29T04:59:38;12.63;;;4.25;;
32613;SDS011;19031;51.400;6.770;2022-10-29T05:02:03;9.63;;;4.80;;
32613;SDS011;19031;51.400;6.770;2022-10-29T05:04:29;13.52;;;4.47;;
32613;SDS011;19031;51.400;6.770;2022-10-29T05:06:54;17.77;;;4.45;;
32613;SDS011;19031;51.400;6.770;2022-10-29T05:09:20;14.52;;;4.45;;
32613;SDS011;19031;51.400;6.770;2022-10-29T05:11:46;11.43;;;4.63;;
32613;SDS011;19031;51.400;6.770;2022-10-29T05:14:11;12.73;;;4.00;;
32613;SDS011;19031;51.400;6.770;2022-10-29T05:16:37;6.75;;;3.55;;
32613;SDS011;19031;51.400;6.770;2022-10-29T05:19:02;12.20;;;4.70;;
32613;SDS011;19031;51.400;6.770;2022-10-29T05:21:29;17.52;;;5.05;;
32613;SDS011;19031;51.400;6.770;2022-10-29T05:23:55;13.23;;;4.80;;
32613;SDS011;19031;51.400;6.770;2022-10-29T05:26:21;8.85;;;4.45;;
32613;SDS011;19031;51.400;6.770;2022-10-29T05:28:50;15.02;;;4.53;;
32613;SDS011;19031;51.400;6.770;2022-10-29T05:31:16;12.48;;;4.63;;
32613;SDS011;19031;51.400;6.770;2022-10-29T05:33:42;13.45;;;4.85;;
32613;SDS011;19031;51.400;6.770;2022-10-29T05:36:07;11.43;;;4.53;;
32613;SDS011;19031;51.400;6.770;2022-10-29T05:38:33;17.13;;;3.90;;
32613;SDS011;19031;51.400;6.770;2022-10-29T05:40:59;12.13;;;4.43;;
32613;SDS011;19031;51.400;6.770;2022-10-29T05:43:24;12.63;;;5.30;;
32613;SDS011;19031;51.400;6.770;2022-10-29T05:45:50;17.05;;;4.43;;
32613;SDS011;19031;51.400;6.770;2022-10-29T05:48:16;9.48;;;3.28;;
32613;SDS011;19031;51.400;6.770;2022-10-29T05:50:41;18.25;;;4.07;;
32613;SDS011;19031;51.400;6.770;2022-10-29T05:53:09;16.73;;;4.78;;
32613;SDS011;19031;51.400;6.770;2022-10-29T05:55:36;12.00;;;4.03;;
32613;SDS011;19031;51.400;6.770;2022-10-29T05:58:03;12.20;;;4.10;;
32613;SDS011;19031;51.400;6.770;2022-10-29T06:00:31;17.83;;;4.53;;
32613;SDS011;19031;51.400;6.770;2022-10-29T06:02:59;15.15;;;5.32;;
32613;SDS011;19031;51.400;6.770;2022-10-29T06:05:24;9.52;;;3.33;;
32613;SDS011;19031;51.400;6.770;2022-10-29T06:07:53;14.43;;;4.10;;
32613;SDS011;19031;51.400;6.770;2022-10-29T06:10:20;11.48;;;4.25;;
32613;SDS011;19031;51.400;6.770;2022-10-29T06:12:46;21.70;;;4.60;;
32613;SDS011;19031;51.400;6.770;2022-10-29T06:15:12;12.05;;;4.20;;
32613;SDS011;19031;51.400;6.770;2022-10-29T06:17:41;16.25;;;4.53;;
32613;SDS011;19031;51.400;6.770;2022-10-29T06:20:08;9.90;;;4.35;;
32613;SDS011;19031;51.400;6.770;2022-10-29T06:22:34;12.07;;;4.15;;
32613;SDS011;19031;51.400;6.770;2022-10-29T06:25:00;15.65;;;5.10;;
32613;SDS011;19031;51.400;6.770;2022-10-29T06:27:25;12.07;;;4.53;;
32613;SDS011;19031;51.400;6.770;2022-10-29T06:29:51;13.48;;;4.13;;
32613;SDS011;19031;51.400;6.770;2022-10-29T06:32:17;16.02;;;3.72;;
32613;SDS011;19031;51.400;6.770;2022-10-29T06:34:42;11.98;;;4.18;;
32613;SDS011;19031;51.400;6.770;2022-10-29T06:37:08;16.17;;;4.57;;
32613;SDS011;19031;51.400;6.770;2022-10-29T06:39:34;14.15;;;5.10;;
32613;SDS011;19031;51.400;6.770;2022-10-29T06:41:59;11.02;;;4.32;;
32613;SDS011;19031;51.400;6.770;2022-10-29T06:44:25;10.63;;;3.97;;
32613;SDS011;19031;51.400;6.770;2022-10-29T06:46:50;10.80;;;4.43;;
32613;SDS011;19031;51.400;6.770;2022-10-29T06:49:16;13.00;;;3.90;;
32613;SDS011;19031;51.400;6.770;2022-10-29T06:51:41;9.68;;;4.45;;
32613;SDS011;19031;51.400;6.770;2022-10-29T06:54:07;11.05;;;4.15;;
32613;SDS011;19031;51.400;6.770;2022-10-29T06:56:33;8.48;;;3.85;;
32613;SDS011;19031;51.400;6.770;2022-10-29T06:58:58;24.00;;;4.97;;
32613;SDS011;19031;51.400;6.770;2022-10-29T07:01:24;10.13;;;3.83;;
32613;SDS011;19031;51.400;6.770;2022-10-29T07:03:52;10.65;;;5.18;;
32613;SDS011;19031;51.400;6.770;2022-10-29T07:06:20;13.38;;;4.28;;
32613;SDS011;19031;51.400;6.770;2022-10-29T07:08:45;10.07;;;4.03;;
32613;SDS011;19031;51.400;6.770;2022-10-29T07:11:11;20.38;;;4.55;;
32613;SDS011;19031;51.400;6.770;2022-10-29T07:13:37;10.15;;;3.97;;
32613;SDS011;19031;51.400;6.770;2022-10-29T07:16:02;12.13;;;4.32;;
32613;SDS011;19031;51.400;6.770;2022-10-29T07:18:28;11.50;;;3.47;;
32613;SDS011;19031;51.400;6.770;2022-10-29T07:20:56;12.95;;;3.35;;
32613;SDS011;19031;51.400;6.770;2022-10-29T07:23:22;11.15;;;3.90;;
32613;SDS011;19031;51.400;6.770;2022-10-29T07:25:47;12.57;;;3.70;;
32613;SDS011;19031;51.400;6.770;2022-10-29T07:28:17;15.10;;;4.45;;
32613;SDS011;19031;51.400;6.770;2022-10-29T07:30:47;6.82;;;3.83;;
32613;SDS011;19031;51.400;6.770;2022-10-29T07:33:14;7.05;;;3.75;;
32613;SDS011;19031;51.400;6.770;2022-10-29T07:35:40;11.95;;;4.05;;
32613;SDS011;19031;51.400;6.770;2022-10-29T07:38:07;13.40;;;3.42;;
32613;SDS011;19031;51.400;6.770;2022-10-29T07:40:34;10.30;;;3.65;;
32613;SDS011;19031;51.400;6.770;2022-10-29T07:43:00;11.82;;;3.53;;
32613;SDS011;19031;51.400;6.770;2022-10-29T07:45:25;12.18;;;3.53;;
32613;SDS011;19031;51.400;6.770;2022-10-29T07:48:01;10.20;;;3.05;;
32613;SDS011;19031;51.400;6.770;2022-10-29T07:50:28;14.20;;;3.55;;
32613;SDS011;19031;51.400;6.770;2022-10-29T07:52:57;11.63;;;4.00;;
32613;SDS011;19031;51.400;6.770;2022-10-29T07:55:24;12.02;;;2.75;;
32613;SDS011;19031;51.400;6.770;2022-10-29T07:57:54;8.70;;;3.50;;
32613;SDS011;19031;51.400;6.770;2022-10-29T08:00:25;10.00;;;3.63;;
32613;SDS011;19031;51.400;6.770;2022-10-29T08:02:52;16.73;;;3.83;;
32613;SDS011;19031;51.400;6.770;2022-10-29T08:05:18;9.93;;;2.85;;
32613;SDS011;19031;51.400;6.770;2022-10-29T08:07:44;6.35;;;2.58;;
32613;SDS011;19031;51.400;6.770;2022-10-29T08:10:10;7.28;;;2.20;;
32613;SDS011;19031;51.400;6.770;2022-10-29T08:12:36;10.25;;;3.38;;
32613;SDS011;19031;51.400;6.770;2022-10-29T08:15:01;15.98;;;2.83;;
32613;SDS011;19031;51.400;6.770;2022-10-29T08:17:29;15.90;;;2.78;;
32613;SDS011;19031;51.400;6.770;2022-10-29T08:19:58;6.70;;;2.42;;
32613;SDS011;19031;51.400;6.770;2022-10-29T08:22:24;11.60;;;2.83;;
32613;SDS011;19031;51.400;6.770;2022-10-29T08:24:51;7.45;;;2.65;;
32613;SDS011;19031;51.400;6.770;2022-10-29T08:27:16;10.82;;;2.35;;
32613;SDS011;19031;51.400;6.770;2022-10-29T08:29:42;8.63;;;3.42;;
32613;SDS011;19031;51.400;6.770;2022-10-29T08:32:07;6.75;;;2.40;;
32613;SDS011;19031;51.400;6.770;2022-10-29T08:34:33;8.60;;;2.63;;
32613;SDS011;19031;51.400;6.770;2022-10-29T08:36:59;7.57;;;2.30;;
32613;SDS011;19031;51.400;6.770;2022-10-29T08:39:26;11.95;;;2.72;;
32613;SDS011;19031;51.400;6.770;2022-10-29T08:42:15;11.77;;;2.35;;
32613;SDS011;19031;51.400;6.770;2022-10-29T08:47:18;6.10;;;2.50;;
32613;SDS011;19031;51.400;6.770;2022-10-29T08:49:46;13.45;;;2.70;;
32613;SDS011;19031;51.400;6.770;2022-10-29T08:52:25;11.10;;;2.55;;
32613;SDS011;19031;51.400;6.770;2022-10-29T08:55:14;9.20;;;2.75;;
32613;SDS011;19031;51.400;6.770;2022-10-29T08:57:40;8.45;;;2.40;;
32613;SDS011;19031;51.400;6.770;2022-10-29T09:02:39;9.43;;;2.67;;
32613;SDS011;19031;51.400;6.770;2022-10-29T09:10:56;7.03;;;2.17;;
32613;SDS011;19031;51.400;6.770;2022-10-29T09:13:53;8.48;;;2.13;;
32613;SDS011;19031;51.400;6.770;2022-10-29T09:27:41;8.10;;;2.80;;
32613;SDS011;19031;51.400;6.770;2022-10-29T09:30:16;9.13;;;2.60;;
32613;SDS011;19031;51.400;6.770;2022-10-29T09:35:21;9.95;;;2.60;;
32613;SDS011;19031;51.400;6.770;2022-10-29T09:37:53;6.97;;;2.20;;
32613;SDS011;19031;51.400;6.770;2022-10-29T09:40:37;8.95;;;2.60;;
32613;SDS011;19031;51.400;6.770;2022-10-29T09:43:05;6.65;;;2.20;;
32613;SDS011;19031;51.400;6.770;2022-10-29T09:50:57;5.05;;;2.05;;
32613;SDS011;19031;51.400;6.770;2022-10-29T09:53:46;13.48;;;2.10;;
32613;SDS011;19031;51.400;6.770;2022-10-29T09:56:13;14.90;;;2.15;;
32613;SDS011;19031;51.400;6.770;2022-10-29T09:58:40;7.57;;;2.28;;
32613;SDS011;19031;51.400;6.770;2022-10-29T10:01:10;6.95;;;2.40;;
32613;SDS011;19031;51.400;6.770;2022-10-29T10:03:39;9.57;;;2.85;;
32613;SDS011;19031;51.400;6.770;2022-10-29T10:11:26;15.32;;;2.92;;
32613;SDS011;19031;51.400;6.770;2022-10-29T10:13:59;11.77;;;2.30;;
32613;SDS011;19031;51.400;6.770;2022-10-29T10:16:41;8.23;;;1.83;;
32613;SDS011;19031;51.400;6.770;2022-10-29T10:19:19;9.57;;;3.20;;
32613;SDS011;19031;51.400;6.770;2022-10-29T10:21:59;9.35;;;1.90;;
32613;SDS011;19031;51.400;6.770;2022-10-29T10:24:40;7.97;;;2.50;;
32613;SDS011;19031;51.400;6.770;2022-10-29T10:29:42;13.45;;;2.58;;
32613;SDS011;19031;51.400;6.770;2022-10-29T10:32:18;14.25;;;2.35;;
32613;SDS011;19031;51.400;6.770;2022-10-29T10:34:43;8.65;;;1.95;;
32613;SDS011;19031;51.400;6.770;2022-10-29T10:39:41;7.03;;;2.97;;
32613;SDS011;19031;51.400;6.770;2022-10-29T10:44:46;6.97;;;2.33;;
32613;SDS011;19031;51.400;6.770;2022-10-29T10:47:17;13.43;;;2.95;;
32613;SDS011;19031;51.400;6.770;2022-10-29T10:49:45;10.32;;;2.70;;
32613;SDS011;19031;51.400;6.770;2022-10-29T10:52:16;14.27;;;2.20;;
32613;SDS011;19031;51.400;6.770;2022-10-29T10:54:55;9.73;;;2.50;;
32613;SDS011;19031;51.400;6.770;2022-10-29T10:57:31;12.85;;;2.55;;
32613;SDS011;19031;51.400;6.770;2022-10-29T11:00:05;6.97;;;2.30;;
32613;SDS011;19031;51.400;6.770;2022-10-29T11:02:46;10.95;;;2.65;;
32613;SDS011;19031;51.400;6.770;2022-10-29T11:06:19;9.02;;;2.25;;
32613;SDS011;19031;51.400;6.770;2022-10-29T11:08:45;7.10;;;2.38;;
32613;SDS011;19031;51.400;6.770;2022-10-29T11:11:14;10.73;;;2.00;;
32613;SDS011;19031;51.400;6.770;2022-10-29T11:13:46;9.02;;;2.90;;
32613;SDS011;19031;51.400;6.770;2022-10-29T11:16:20;7.82;;;2.75;;
32613;SDS011;19031;51.400;6.770;2022-10-29T11:18:56;8.65;;;2.40;;
32613;SDS011;19031;51.400;6.770;2022-10-29T11:24:08;12.65;;;3.38;;
32613;SDS011;19031;51.400;6.770;2022-10-29T11:26:55;7.18;;;2.72;;
32613;SDS011;19031;51.400;6.770;2022-10-29T11:32:55;13.00;;;2.92;;
32613;SDS011;19031;51.400;6.770;2022-10-29T11:35:43;7.72;;;3.17;;
32613;SDS011;19031;51.400;6.770;2022-10-29T11:38:27;10.85;;;2.58;;
32613;SDS011;19031;51.400;6.770;2022-10-29T11:43:38;13.70;;;3.15;;
32613;SDS011;19031;51.400;6.770;2022-10-29T11:46:20;6.80;;;2.45;;
32613;SDS011;19031;51.400;6.770;2022-10-29T11:48:49;8.35;;;2.10;;
32613;SDS011;19031;51.400;6.770;2022-10-29T11:51:48;8.23;;;3.08;;
32613;SDS011;19031;51.400;6.770;2022-10-29T11:57:26;12.40;;;3.28;;
32613;SDS011;19031;51.400;6.770;2022-10-29T12:00:13;8.02;;;2.85;;
32613;SDS011;19031;51.400;6.770;2022-10-29T12:02:48;10.57;;;2.90;;
32613;SDS011;19031;51.400;6.770;2022-10-29T12:05:34;8.68;;;2.10;;
32613;SDS011;19031;51.400;6.770;2022-10-29T12:08:20;10.20;;;3.33;;
32613;SDS011;19031;51.400;6.770;2022-10-29T12:11:31;16.38;;;3.03;;
32613;SDS011;19031;51.400;6.770;2022-10-29T12:19:43;19.48;;;2.53;;
32613;SDS011;19031;51.400;6.770;2022-10-29T12:28:27;11.93;;;2.05;;
32613;SDS011;19031;51.400;6.770;2022-10-29T12:30:47;8.93;;;2.70;;
32613;SDS011;19031;51.400;6.770;2022-10-29T12:33:27;9.85;;;2.05;;
32613;SDS011;19031;51.400;6.770;2022-10-29T12:36:04;12.52;;;3.13;;
32613;SDS011;19031;51.400;6.770;2022-10-29T12:38:38;17.90;;;2.22;;
32613;SDS011;19031;51.400;6.770;2022-10-29T12:41:14;8.93;;;2.42;;
32613;SDS011;19031;51.400;6.770;2022-10-29T12:43:44;5.95;;;2.22;;
32613;SDS011;19031;51.400;6.770;2022-10-29T12:46:13;11.15;;;2.30;;
32613;SDS011;19031;51.400;6.770;2022-10-29T12:54:09;6.55;;;1.75;;
32613;SDS011;19031;51.400;6.770;2022-10-29T12:56:44;9.75;;;1.85;;
32613;SDS011;19031;51.400;6.770;2022-10-29T13:01:50;8.05;;;2.03;;
32613;SDS011;19031;51.400;6.770;2022-10-29T13:04:23;7.25;;;3.65;;
32613;SDS011;19031;51.400;6.770;2022-10-29T13:07:00;16.70;;;1.98;;
32613;SDS011;19031;51.400;6.770;2022-10-29T13:09:32;8.85;;;2.33;;
32613;SDS011;19031;51.400;6.770;2022-10-29T13:17:02;6.97;;;2.10;;
32613;SDS011;19031;51.400;6.770;2022-10-29T13:22:05;7.63;;;2.60;;
32613;SDS011;19031;51.400;6.770;2022-10-29T13:24:40;7.15;;;1.95;;
32613;SDS011;19031;51.400;6.770;2022-10-29T13:29:41;10.02;;;2.20;;
32613;SDS011;19031;51.400;6.770;2022-10-29T13:35:03;9.50;;;2.63;;
32613;SDS011;19031;51.400;6.770;2022-10-29T13:37:34;12.55;;;1.85;;
32613;SDS011;19031;51.400;6.770;2022-10-29T13:42:55;11.13;;;2.45;;
32613;SDS011;19031;51.400;6.770;2022-10-29T13:45:38;6.53;;;1.90;;
32613;SDS011;19031;51.400;6.770;2022-10-29T13:48:14;8.52;;;2.55;;
32613;SDS011;19031;51.400;6.770;2022-10-29T13:50:49;7.95;;;2.10;;
32613;SDS011;19031;51.400;6.770;2022-10-29T13:53:16;10.32;;;2.78;;
32613;SDS011;19031;51.400;6.770;2022-10-29T13:55:47;12.40;;;2.63;;
32613;SDS011;19031;51.400;6.770;2022-10-29T13:58:45;9.98;;;2.90;;
32613;SDS011;19031;51.400;6.770;2022-10-29T14:01:17;11.23;;;1.92;;
32613;SDS011;19031;51.400;6.770;2022-10-29T14:04:00;10.25;;;2.03;;
32613;SDS011;19031;51.400;6.770;2022-10-29T14:06:31;4.82;;;1.40;;
32613;SDS011;19031;51.400;6.770;2022-10-29T14:09:05;6.40;;;2.53;;
32613;SDS011;19031;51.400;6.770;2022-10-29T14:11:39;10.43;;;1.98;;
32613;SDS011;19031;51.400;6.770;2022-10-29T14:14:23;8.52;;;2.45;;
32613;SDS011;19031;51.400;6.770;2022-10-29T14:17:09;8.70;;;1.77;;
32613;SDS011;19031;51.400;6.770;2022-10-29T14:19:41;9.07;;;2.92;;
32613;SDS011;19031;51.400;6.770;2022-10-29T14:24:46;5.57;;;1.92;;
32613;SDS011;19031;51.400;6.770;2022-10-29T14:27:11;8.60;;;2.50;;
32613;SDS011;19031;51.400;6.770;2022-10-29T14:29:39;6.57;;;1.95;;
32613;SDS011;19031;51.400;6.770;2022-10-29T14:32:15;11.57;;;2.75;;
32613;SDS011;19031;51.400;6.770;2022-10-29T14:34:49;5.93;;;2.00;;
32613;SDS011;19031;51.400;6.770;2022-10-29T14:37:24;6.43;;;2.45;;
32613;SDS011;19031;51.400;6.770;2022-10-29T14:39:56;9.70;;;2.92;;
32613;SDS011;19031;51.400;6.770;2022-10-29T14:45:23;9.77;;;2.78;;
32613;SDS011;19031;51.400;6.770;2022-10-29T14:47:54;12.55;;;2.55;;
32613;SDS011;19031;51.400;6.770;2022-10-29T14:50:23;11.02;;;2.05;;
32613;SDS011;19031;51.400;6.770;2022-10-29T14:52:53;11.05;;;2.60;;
32613;SDS011;19031;51.400;6.770;2022-10-29T14:55:30;13.88;;;2.92;;
32613;SDS011;19031;51.400;6.770;2022-10-29T14:58:27;10.60;;;2.13;;
32613;SDS011;19031;51.400;6.770;2022-10-29T15:03:55;13.88;;;2.30;;
32613;SDS011;19031;51.400;6.770;2022-10-29T15:06:27;12.88;;;1.90;;
32613;SDS011;19031;51.400;6.770;2022-10-29T15:08:57;10.30;;;3.10;;
32613;SDS011;19031;51.400;6.770;2022-10-29T15:11:34;7.00;;;2.78;;
32613;SDS011;19031;51.400;6.770;2022-10-29T15:14:04;7.65;;;2.30;;
32613;SDS011;19031;51.400;6.770;2022-10-29T15:16:52;5.53;;;3.03;;
32613;SDS011;19031;51.400;6.770;2022-10-29T15:19:17;7.90;;;2.10;;
32613;SDS011;19031;51.400;6.770;2022-10-29T15:21:43;4.32;;;2.45;;
32613;SDS011;19031;51.400;6.770;2022-10-29T15:24:11;8.82;;;2.08;;
32613;SDS011;19031;51.400;6.770;2022-10-29T15:26:46;6.47;;;1.83;;
32613;SDS011;19031;51.400;6.770;2022-10-29T15:29:20;8.20;;;2.22;;
32613;SDS011;19031;51.400;6.770;2022-10-29T15:31:49;8.43;;;2.38;;
32613;SDS011;19031;51.400;6.770;2022-10-29T15:34:44;4.30;;;2.53;;
32613;SDS011;19031;51.400;6.770;2022-10-29T15:40:08;7.35;;;2.70;;
32613;SDS011;19031;51.400;6.770;2022-10-29T15:42:37;7.28;;;2.88;;
32613;SDS011;19031;51.400;6.770;2022-10-29T15:47:32;10.20;;;3.25;;
32613;SDS011;19031;51.400;6.770;2022-10-29T15:50:11;13.65;;;3.70;;
32613;SDS011;19031;51.400;6.770;2022-10-29T15:52:52;10.50;;;3.30;;
32613;SDS011;19031;51.400;6.770;2022-10-29T15:55:22;10.30;;;2.95;;
32613;SDS011;19031;51.400;6.770;2022-10-29T15:57:50;9.80;;;2.67;;
32613;SDS011;19031;51.400;6.770;2022-10-29T16:00:16;12.60;;;4.90;;
32613;SDS011;19031;51.400;6.770;2022-10-29T16:02:44;10.93;;;4.15;;
32613;SDS011;19031;51.400;6.770;2022-10-29T16:05:11;14.35;;;4.72;;
32613;SDS011;19031;51.400;6.770;2022-10-29T16:07:38;7.07;;;3.38;;
32613;SDS011;19031;51.400;6.770;2022-10-29T16:10:05;8.70;;;3.92;;
32613;SDS011;19031;51.400;6.770;2022-10-29T16:12:31;9.85;;;3.00;;
32613;SDS011;19031;51.400;6.770;2022-10-29T16:14:56;11.30;;;2.35;;
32613;SDS011;19031;51.400;6.770;2022-10-29T16:17:22;7.40;;;2.25;;
32613;SDS011;19031;51.400;6.770;2022-10-29T16:19:47;5.50;;;2.53;;
32613;SDS011;19031;51.400;6.770;2022-10-29T16:22:16;6.95;;;2.35;;
32613;SDS011;19031;51.400;6.770;2022-10-29T16:24:50;10.27;;;2.50;;
32613;SDS011;19031;51.400;6.770;2022-10-29T16:27:16;7.90;;;2.22;;
32613;SDS011;19031;51.400;6.770;2022-10-29T16:29:42;8.57;;;2.28;;
32613;SDS011;19031;51.400;6.770;2022-10-29T16:32:19;15.25;;;2.60;;
32613;SDS011;19031;51.400;6.770;2022-10-29T16:34:46;7.32;;;2.33;;
32613;SDS011;19031;51.400;6.770;2022-10-29T16:37:13;13.32;;;2.92;;
32613;SDS011;19031;51.400;6.770;2022-10-29T16:39:40;8.30;;;2.08;;
32613;SDS011;19031;51.400;6.770;2022-10-29T16:42:06;10.32;;;2.75;;
32613;SDS011;19031;51.400;6.770;2022-10-29T16:44:38;9.15;;;2.40;;
32613;SDS011;19031;51.400;6.770;2022-10-29T16:47:09;13.63;;;2.25;;
32613;SDS011;19031;51.400;6.770;2022-10-29T16:49:35;6.05;;;2.00;;
32613;SDS011;19031;51.400;6.770;2022-10-29T16:52:00;7.72;;;2.20;;
32613;SDS011;19031;51.400;6.770;2022-10-29T16:54:26;10.18;;;2.83;;
32613;SDS011;19031;51.400;6.770;2022-10-29T16:56:51;7.43;;;2.92;;
32613;SDS011;19031;51.400;6.770;2022-10-29T16:59:18;5.07;;;2.30;;
32613;SDS011;19031;51.400;6.770;2022-10-29T17:01:46;7.28;;;2.30;;
32613;SDS011;19031;51.400;6.770;2022-10-29T17:04:14;12.60;;;2.40;;
32613;SDS011;19031;51.400;6.770;2022-10-29T17:06:40;6.45;;;2.33;;
32613;SDS011;19031;51.400;6.770;2022-10-29T17:09:05;7.75;;;2.53;;